createdAt,value
2023-03-29T00:01:00.189Z,9.58
2023-03-29T00:03:27.498Z,9.58
2023-03-29T00:06:02.870Z,9.39
2023-03-29T00:08:31.363Z,9.42
2023-03-29T00:10:59.313Z,9.44
2023-03-29T00:13:26.893Z,9.30
2023-03-29T00:15:54.397Z,9.50
2023-03-29T00:18:21.146Z,9.58
2023-03-29T00:20:54.521Z,9.75
2023-03-29T00:23:22.591Z,9.61
2023-03-29T00:25:49.193Z,9.64
2023-03-29T00:28:15.785Z,9.69
2023-03-29T00:30:42.427Z,9.55
2023-03-29T00:33:09.116Z,9.73
2023-03-29T00:35:38.228Z,9.84
2023-03-29T00:38:06.209Z,9.90
2023-03-29T00:40:33.752Z,10.03
2023-03-29T00:43:00.624Z,9.90
2023-03-29T00:45:30.354Z,9.77
2023-03-29T00:48:00.309Z,9.69
2023-03-29T00:50:56.368Z,9.87
2023-03-29T00:53:42.153Z,10.08
2023-03-29T00:56:12.325Z,9.90
2023-03-29T00:58:46.688Z,9.99
2023-03-29T01:01:21.467Z,10.15
2023-03-29T01:04:03.123Z,10.53
2023-03-29T01:06:31.379Z,10.43
2023-03-29T01:09:01.312Z,10.50
2023-03-29T01:11:36.892Z,11.03
2023-03-29T01:14:06.969Z,10.77
2023-03-29T01:16:36.063Z,10.83
2023-03-29T01:19:03.116Z,10.46
2023-03-29T01:21:33.407Z,10.41
2023-03-29T01:24:07.330Z,10.72
2023-03-29T01:26:42.681Z,10.46
2023-03-29T01:29:28.554Z,10.44
2023-03-29T01:31:59.629Z,10.18
2023-03-29T01:34:32.692Z,9.89
2023-03-29T01:37:04.538Z,9.91
2023-03-29T01:39:31.633Z,9.80
2023-03-29T01:42:48.554Z,9.85
2023-03-29T01:45:20.944Z,9.74
2023-03-29T01:48:06.193Z,9.86
2023-03-29T01:50:44.940Z,9.54
2023-03-29T01:53:18.150Z,9.38
2023-03-29T01:55:53.383Z,9.44
2023-03-29T01:58:22.536Z,9.64
2023-03-29T02:00:50.821Z,9.71
2023-03-29T02:03:18.930Z,9.77
2023-03-29T02:05:47.030Z,9.78
2023-03-29T02:08:16.121Z,9.91
2023-03-29T02:10:42.791Z,9.78
2023-03-29T02:13:11.090Z,9.90
2023-03-29T02:15:38.522Z,9.95
2023-03-29T02:18:06.635Z,9.87
2023-03-29T02:20:39.079Z,9.96
2023-03-29T02:23:18.057Z,9.99
2023-03-29T02:25:45.716Z,9.93
2023-03-29T02:28:12.884Z,9.95
2023-03-29T02:30:55.027Z,10.05
2023-03-29T02:33:39.051Z,9.89
2023-03-29T02:36:13.645Z,10.01
2023-03-29T02:38:40.690Z,9.66
2023-03-29T02:41:08.047Z,9.75
2023-03-29T02:43:35.385Z,9.77
2023-03-29T02:46:03.077Z,9.83
2023-03-29T02:48:30.238Z,9.75
2023-03-29T02:50:59.906Z,9.85
2023-03-29T02:53:34.669Z,9.75
2023-03-29T02:56:02.267Z,9.55
2023-03-29T02:58:29.534Z,9.77
2023-03-29T03:00:58.716Z,9.70
2023-03-29T03:03:25.483Z,9.64
2023-03-29T03:05:52.622Z,9.57
2023-03-29T03:08:19.841Z,9.49
2023-03-29T03:10:47.691Z,9.32
2023-03-29T03:13:14.314Z,9.43
2023-03-29T03:15:42.833Z,9.22
2023-03-29T03:18:10.630Z,9.24
2023-03-29T03:20:37.239Z,9.28
2023-03-29T03:23:03.799Z,9.14
2023-03-29T03:25:31.746Z,9.01
2023-03-29T03:27:58.509Z,9.13
2023-03-29T03:30:25.455Z,9.08
2023-03-29T03:33:11.537Z,9.22
2023-03-29T03:36:06.855Z,9.36
2023-03-29T03:38:36.216Z,9.09
2023-03-29T03:41:03.720Z,9.14
2023-03-29T03:43:34.020Z,9.22
2023-03-29T03:46:00.736Z,8.92
2023-03-29T03:48:27.866Z,8.97
2023-03-29T03:50:59.840Z,9.01
2023-03-29T03:53:32.227Z,9.04
2023-03-29T03:56:14.214Z,8.78
2023-03-29T03:59:05.423Z,9.11
2023-03-29T04:01:46.268Z,9.15
2023-03-29T04:04:23.398Z,9.13
2023-03-29T04:07:14.221Z,9.04
2023-03-29T04:09:59.386Z,9.07
2023-03-29T04:12:48.859Z,8.90
2023-03-29T04:15:17.803Z,8.86
2023-03-29T04:17:50.888Z,8.98
2023-03-29T04:20:24.190Z,8.96
2023-03-29T04:22:51.341Z,8.91
2023-03-29T04:25:19.249Z,8.96
2023-03-29T04:27:46.136Z,9.06
2023-03-29T04:30:30.690Z,8.98
2023-03-29T04:33:09.526Z,9.03
2023-03-29T04:35:38.713Z,8.94
2023-03-29T04:38:10.146Z,8.74
2023-03-29T04:40:38.410Z,8.97
2023-03-29T04:43:17.885Z,9.00
2023-03-29T04:45:55.156Z,9.09
2023-03-29T04:48:37.609Z,9.07
2023-03-29T04:51:04.308Z,9.13
2023-03-29T04:53:32.846Z,9.03
2023-03-29T04:55:59.672Z,9.01
2023-03-29T04:58:44.713Z,8.96
2023-03-29T05:01:11.883Z,9.01
2023-03-29T05:03:43.013Z,9.35
2023-03-29T05:06:17.032Z,8.97
2023-03-29T05:08:44.542Z,9.03
2023-03-29T05:11:24.303Z,9.03
2023-03-29T05:13:51.178Z,9.07
2023-03-29T05:16:18.596Z,9.19
2023-03-29T05:18:45.295Z,9.22
2023-03-29T05:21:12.095Z,9.27
2023-03-29T05:23:41.624Z,9.10
2023-03-29T05:26:16.974Z,9.24
2023-03-29T05:28:49.751Z,9.17
2023-03-29T05:31:17.288Z,9.32
2023-03-29T05:33:48.042Z,9.20
2023-03-29T05:36:16.732Z,9.39
2023-03-29T05:38:49.941Z,9.42
2023-03-29T05:41:26.517Z,9.40
2023-03-29T05:44:15.807Z,9.51
2023-03-29T05:46:44.925Z,9.67
2023-03-29T05:49:16.460Z,9.74
2023-03-29T05:51:57.533Z,9.88
2023-03-29T05:54:26.233Z,9.99
2023-03-29T05:56:52.873Z,10.08
2023-03-29T05:59:19.807Z,10.13
2023-03-29T06:01:48.688Z,10.06
2023-03-29T06:04:19.104Z,10.21
2023-03-29T06:06:55.751Z,10.38
2023-03-29T06:09:22.755Z,10.46
2023-03-29T06:11:58.930Z,10.42
2023-03-29T06:14:41.707Z,10.31
2023-03-29T06:17:19.945Z,10.65
2023-03-29T06:19:47.629Z,10.88
2023-03-29T06:22:15.145Z,11.09
2023-03-29T06:24:42.245Z,11.24
2023-03-29T06:27:16.309Z,11.28
2023-03-29T06:29:43.357Z,11.11
2023-03-29T06:32:11.123Z,11.02
2023-03-29T06:35:10.145Z,11.14
2023-03-29T06:37:41.007Z,10.79
2023-03-29T06:40:19.232Z,11.09
2023-03-29T06:42:50.967Z,11.31
2023-03-29T06:45:42.764Z,11.29
2023-03-29T06:48:18.989Z,11.08
2023-03-29T06:50:48.334Z,11.08
2023-03-29T06:53:17.011Z,11.02
2023-03-29T06:55:49.516Z,11.22
2023-03-29T06:58:35.635Z,11.37
2023-03-29T07:01:09.282Z,11.37
2023-03-29T07:03:50.183Z,11.48
2023-03-29T07:06:22.314Z,11.51
2023-03-29T07:08:52.410Z,11.59
2023-03-29T07:11:35.340Z,11.72
2023-03-29T07:14:15.697Z,11.61
2023-03-29T07:16:42.370Z,11.85
2023-03-29T07:19:19.751Z,11.78
2023-03-29T07:21:55.160Z,11.97
2023-03-29T07:24:29.522Z,11.91
2023-03-29T07:27:04.057Z,11.99
2023-03-29T07:29:32.115Z,12.00
2023-03-29T07:31:59.003Z,11.91
2023-03-29T07:34:49.257Z,12.14
2023-03-29T07:37:26.916Z,12.24
2023-03-29T07:39:54.854Z,12.69
2023-03-29T07:42:39.846Z,12.93
2023-03-29T07:45:10.800Z,13.05
2023-03-29T07:47:54.385Z,13.23
2023-03-29T07:50:21.058Z,13.84
2023-03-29T07:52:48.284Z,13.55
2023-03-29T07:55:15.458Z,13.02
2023-03-29T07:58:03.047Z,12.68
2023-03-29T08:00:29.972Z,12.93
2023-03-29T08:03:17.102Z,13.36
2023-03-29T08:05:43.891Z,13.77
2023-03-29T08:08:14.381Z,14.65
2023-03-29T08:11:04.910Z,14.95
2023-03-29T08:13:36.474Z,15.16
2023-03-29T08:16:26.838Z,15.76
2023-03-29T08:19:05.319Z,16.09
2023-03-29T08:21:48.529Z,16.45
2023-03-29T08:24:16.108Z,16.89
2023-03-29T08:26:48.791Z,18.88
2023-03-29T08:29:18.238Z,19.15
2023-03-29T08:31:45.205Z,19.37
2023-03-29T08:34:11.938Z,19.17
2023-03-29T08:36:58.533Z,19.21
2023-03-29T08:39:38.089Z,19.24
2023-03-29T08:42:32.777Z,18.76
2023-03-29T08:45:19.179Z,19.30
2023-03-29T08:47:53.220Z,19.74
2023-03-29T08:50:21.133Z,19.14
2023-03-29T08:52:55.416Z,19.15
2023-03-29T08:55:47.337Z,19.50
2023-03-29T08:58:40.592Z,20.27
2023-03-29T09:01:09.246Z,20.81
2023-03-29T09:03:49.994Z,20.20
2023-03-29T09:06:28.894Z,20.34
2023-03-29T09:09:13.527Z,20.59
2023-03-29T09:11:48.852Z,21.51
2023-03-29T09:14:39.216Z,22.34
2023-03-29T09:17:29.564Z,21.73
2023-03-29T09:20:21.059Z,21.35
2023-03-29T09:23:00.816Z,21.45
2023-03-29T09:25:54.163Z,21.22
2023-03-29T09:28:51.004Z,20.70
2023-03-29T09:31:22.972Z,20.94
2023-03-29T09:33:56.228Z,21.07
2023-03-29T09:36:51.547Z,20.86
2023-03-29T09:39:21.085Z,20.98
2023-03-29T09:41:56.191Z,21.09
2023-03-29T09:44:31.145Z,21.02
2023-03-29T09:47:08.619Z,20.41
2023-03-29T09:49:40.332Z,20.29
2023-03-29T09:52:12.628Z,20.45
2023-03-29T09:54:41.661Z,20.21
2023-03-29T09:57:36.299Z,20.73
2023-03-29T10:00:05.866Z,20.89
2023-03-29T10:02:40.620Z,21.16
2023-03-29T10:05:16.335Z,20.83
2023-03-29T10:07:52.787Z,19.98
2023-03-29T10:10:29.260Z,20.32
2023-03-29T10:13:07.406Z,19.12
2023-03-29T10:15:33.911Z,19.49
2023-03-29T10:18:10.881Z,19.43
2023-03-29T10:20:40.427Z,19.16
2023-03-29T10:23:08.897Z,19.34
2023-03-29T10:25:42.623Z,19.43
2023-03-29T10:28:16.502Z,20.01
2023-03-29T10:30:47.574Z,20.62
2023-03-29T10:33:19.699Z,20.63
2023-03-29T10:35:47.221Z,20.44
2023-03-29T10:38:16.133Z,19.74
2023-03-29T10:40:45.208Z,19.33
2023-03-29T10:43:19.382Z,19.67
2023-03-29T10:45:50.851Z,19.72
2023-03-29T10:48:17.984Z,19.29
2023-03-29T10:50:49.824Z,19.45
2023-03-29T10:53:24.112Z,19.52
2023-03-29T10:56:02.834Z,19.36
2023-03-29T10:58:46.638Z,19.65
2023-03-29T11:01:18.456Z,19.32
2023-03-29T11:04:18.365Z,19.21
2023-03-29T11:07:01.530Z,18.68
2023-03-29T11:09:37.482Z,18.89
2023-03-29T11:12:39.768Z,17.28
2023-03-29T11:15:32.657Z,18.22
2023-03-29T11:18:22.252Z,18.40
2023-03-29T11:20:54.746Z,18.39
2023-03-29T11:23:39.847Z,18.55
2023-03-29T11:26:15.166Z,18.39
2023-03-29T11:28:49.199Z,18.29
2023-03-29T11:31:28.457Z,18.45
2023-03-29T11:34:12.368Z,18.05
2023-03-29T11:36:44.653Z,18.51
2023-03-29T11:39:29.937Z,18.38
2023-03-29T11:42:03.373Z,18.83
2023-03-29T11:44:31.454Z,18.66
2023-03-29T11:47:03.136Z,19.23
2023-03-29T11:49:38.701Z,19.44
2023-03-29T11:52:17.860Z,19.63
2023-03-29T11:55:06.408Z,19.56
2023-03-29T11:57:44.085Z,19.72
2023-03-29T12:00:15.764Z,19.77
2023-03-29T12:02:46.438Z,19.77
2023-03-29T12:05:16.004Z,19.60
2023-03-29T12:07:48.904Z,19.49
2023-03-29T12:10:18.934Z,19.29
2023-03-29T12:12:48.969Z,18.93
2023-03-29T12:15:24.882Z,19.46
2023-03-29T12:18:16.702Z,19.63
2023-03-29T12:20:46.938Z,19.63
2023-03-29T12:23:15.183Z,18.66
2023-03-29T12:25:53.740Z,18.75
2023-03-29T12:28:48.880Z,18.41
2023-03-29T12:31:23.304Z,18.16
2023-03-29T12:34:17.324Z,18.79
2023-03-29T12:37:00.401Z,18.92
2023-03-29T12:39:45.843Z,18.69
2023-03-29T12:42:31.450Z,18.50
2023-03-29T12:45:21.742Z,18.43
2023-03-29T12:47:50.943Z,18.79
2023-03-29T12:50:28.522Z,19.17
2023-03-29T12:53:06.368Z,19.40
2023-03-29T12:55:42.416Z,19.35
2023-03-29T12:58:30.668Z,19.19
2023-03-29T13:01:07.923Z,19.06
2023-03-29T13:03:45.191Z,19.36
2023-03-29T13:06:13.122Z,19.24
2023-03-29T13:08:42.558Z,19.05
2023-03-29T13:11:13.420Z,19.00
2023-03-29T13:13:40.841Z,19.04
2023-03-29T13:16:16.676Z,19.13
2023-03-29T13:19:06.748Z,18.58
2023-03-29T13:21:57.074Z,18.80
2023-03-29T13:24:43.799Z,18.72
2023-03-29T13:27:18.030Z,18.75
2023-03-29T13:29:58.793Z,18.65
2023-03-29T13:32:28.454Z,18.67
2023-03-29T13:35:02.315Z,18.49
2023-03-29T13:37:54.217Z,18.58
2023-03-29T13:40:57.648Z,18.82
2023-03-29T13:43:36.532Z,18.50
2023-03-29T13:46:03.882Z,18.19
2023-03-29T13:48:37.702Z,18.24
2023-03-29T13:51:28.483Z,18.02
2023-03-29T13:53:58.546Z,17.53
2023-03-29T13:56:28.915Z,17.82
2023-03-29T13:59:03.661Z,18.08
2023-03-29T14:01:43.439Z,18.12
2023-03-29T14:04:17.110Z,17.79
2023-03-29T14:06:48.272Z,18.02
2023-03-29T14:09:15.371Z,18.67
2023-03-29T14:11:44.609Z,18.08
2023-03-29T14:14:11.466Z,18.00
2023-03-29T14:16:39.678Z,17.97
2023-03-29T14:19:13.478Z,17.87
2023-03-29T14:21:41.321Z,17.69
2023-03-29T14:24:12.788Z,17.66
2023-03-29T14:26:44.340Z,17.69
2023-03-29T14:29:11.913Z,17.73
2023-03-29T14:31:40.573Z,17.25
2023-03-29T14:34:18.601Z,17.71
2023-03-29T14:36:48.787Z,17.79
2023-03-29T14:39:17.746Z,17.73
2023-03-29T14:41:49.957Z,17.84
2023-03-29T14:44:16.619Z,17.64
2023-03-29T14:46:44.310Z,17.47
2023-03-29T14:49:15.497Z,17.71
2023-03-29T14:51:41.945Z,17.22
2023-03-29T14:54:16.658Z,17.57
2023-03-29T14:56:43.325Z,17.62
2023-03-29T14:59:24.353Z,17.76
2023-03-29T15:01:50.942Z,17.44
2023-03-29T15:04:17.512Z,17.70
2023-03-29T15:06:46.782Z,17.47
2023-03-29T15:09:18.508Z,17.62
2023-03-29T15:11:51.753Z,17.77
2023-03-29T15:14:19.683Z,17.60
2023-03-29T15:16:48.381Z,17.47
2023-03-29T15:19:18.151Z,17.56
2023-03-29T15:21:45.317Z,17.52
2023-03-29T15:24:32.505Z,17.70
2023-03-29T15:27:03.554Z,17.65
2023-03-29T15:29:33.983Z,18.15
2023-03-29T15:32:00.516Z,17.84
2023-03-29T15:34:29.594Z,17.97
2023-03-29T15:36:59.535Z,17.89
2023-03-29T15:39:29.530Z,18.03
2023-03-29T15:41:57.266Z,18.00
2023-03-29T15:44:29.013Z,17.94
2023-03-29T15:46:57.778Z,17.79
2023-03-29T15:49:25.234Z,17.95
2023-03-29T15:51:54.006Z,17.86
2023-03-29T15:54:21.563Z,18.02
2023-03-29T15:56:52.003Z,18.05
2023-03-29T15:59:18.790Z,17.88
2023-03-29T16:01:46.791Z,17.90
2023-03-29T16:04:16.868Z,18.00
2023-03-29T16:06:44.715Z,17.63
2023-03-29T16:09:12.001Z,17.84
2023-03-29T16:11:40.897Z,18.04
2023-03-29T16:14:26.997Z,18.39
2023-03-29T16:17:00.485Z,18.13
2023-03-29T16:19:27.932Z,18.18
2023-03-29T16:21:55.316Z,18.05
2023-03-29T16:24:24.189Z,18.07
2023-03-29T16:26:54.018Z,18.01
2023-03-29T16:29:22.139Z,17.57
2023-03-29T16:31:49.596Z,17.78
2023-03-29T16:34:18.723Z,17.67
2023-03-29T16:36:46.315Z,17.74
2023-03-29T16:39:15.966Z,17.79
2023-03-29T16:41:42.973Z,17.89
2023-03-29T16:44:15.856Z,17.62
2023-03-29T16:46:42.412Z,17.84
2023-03-29T16:49:13.868Z,17.66
2023-03-29T16:51:40.443Z,17.83
2023-03-29T16:54:07.402Z,17.74
2023-03-29T16:56:36.459Z,17.88
2023-03-29T16:59:03.489Z,17.87
2023-03-29T17:01:30.501Z,17.96
2023-03-29T17:03:57.271Z,17.98
2023-03-29T17:06:23.905Z,17.88
2023-03-29T17:08:50.587Z,18.01
2023-03-29T17:11:17.524Z,17.97
2023-03-29T17:13:44.605Z,17.90
2023-03-29T17:16:11.242Z,18.06
2023-03-29T17:18:37.929Z,18.07
2023-03-29T17:21:04.686Z,18.01
2023-03-29T17:23:31.694Z,18.11
2023-03-29T17:25:58.179Z,18.18
2023-03-29T17:28:24.834Z,18.06
2023-03-29T17:30:51.607Z,18.02
2023-03-29T17:33:22.907Z,18.10
2023-03-29T17:35:49.675Z,17.99
2023-03-29T17:38:16.549Z,18.01
2023-03-29T17:40:43.138Z,18.14
2023-03-29T17:43:09.716Z,18.05
2023-03-29T17:45:36.588Z,18.11
2023-03-29T17:48:06.541Z,18.08
2023-03-29T17:50:33.686Z,18.00
2023-03-29T17:53:00.606Z,18.08
2023-03-29T17:55:27.622Z,18.03
2023-03-29T17:57:54.579Z,18.11
2023-03-29T18:00:21.453Z,17.95
2023-03-29T18:02:48.440Z,17.77
2023-03-29T18:05:15.081Z,17.90
2023-03-29T18:07:41.565Z,17.95
2023-03-29T18:10:08.595Z,18.00
2023-03-29T18:12:35.236Z,18.02
2023-03-29T18:15:02.203Z,18.01
2023-03-29T18:17:28.752Z,18.02
2023-03-29T18:19:55.299Z,17.90
2023-03-29T18:22:24.876Z,17.91
2023-03-29T18:24:51.989Z,17.92
2023-03-29T18:27:18.823Z,17.86
2023-03-29T18:29:45.486Z,17.88
2023-03-29T18:32:12.145Z,17.83
2023-03-29T18:34:39.488Z,17.86
2023-03-29T18:37:06.341Z,17.77
2023-03-29T18:39:35.783Z,17.72
2023-03-29T18:42:02.307Z,17.76
2023-03-29T18:44:29.156Z,17.39
2023-03-29T18:46:57.679Z,17.58
2023-03-29T18:49:25.725Z,17.40
2023-03-29T18:51:52.368Z,17.54
2023-03-29T18:54:18.993Z,17.65
2023-03-29T18:56:45.678Z,17.63
2023-03-29T18:59:12.401Z,17.58
2023-03-29T19:01:44.834Z,17.74
2023-03-29T19:04:13.448Z,17.58
2023-03-29T19:06:43.644Z,17.57
2023-03-29T19:09:10.209Z,17.48
2023-03-29T19:11:36.724Z,17.57
2023-03-29T19:14:04.628Z,17.49
2023-03-29T19:16:31.762Z,17.46
2023-03-29T19:18:58.239Z,17.58
2023-03-29T19:21:24.740Z,17.71
2023-03-29T19:23:52.886Z,17.76
2023-03-29T19:26:19.487Z,17.82
2023-03-29T19:28:46.045Z,17.84
2023-03-29T19:31:12.664Z,17.83
2023-03-29T19:33:40.873Z,17.77
2023-03-29T19:36:07.917Z,17.74
2023-03-29T19:38:34.636Z,17.66
2023-03-29T19:41:01.309Z,17.72
2023-03-29T19:43:27.872Z,17.70
2023-03-29T19:45:54.439Z,17.74
2023-03-29T19:48:23.825Z,17.73
2023-03-29T19:50:51.417Z,17.76
2023-03-29T19:53:17.971Z,17.71
2023-03-29T19:55:45.097Z,17.70
2023-03-29T19:58:11.937Z,17.70
2023-03-29T20:00:39.084Z,17.67
2023-03-29T20:03:10.005Z,17.69
2023-03-29T20:05:37.045Z,18.28
2023-03-29T20:08:03.940Z,17.75
2023-03-29T20:10:30.526Z,17.62
2023-03-29T20:12:57.211Z,17.70
2023-03-29T20:15:27.159Z,17.66
2023-03-29T20:17:57.043Z,17.66
2023-03-29T20:20:31.852Z,17.74
2023-03-29T20:23:04.672Z,17.76
2023-03-29T20:25:35.877Z,17.51
2023-03-29T20:28:06.632Z,17.62
2023-03-29T20:30:33.531Z,17.55
2023-03-29T20:33:00.195Z,17.63
2023-03-29T20:35:27.362Z,17.58
2023-03-29T20:37:54.007Z,17.47
2023-03-29T20:40:20.921Z,17.47
2023-03-29T20:42:48.918Z,17.51
2023-03-29T20:45:18.730Z,17.61
2023-03-29T20:47:50.524Z,17.62
2023-03-29T20:50:22.471Z,17.64
2023-03-29T20:52:49.112Z,17.62
2023-03-29T20:55:17.089Z,17.65
2023-03-29T20:57:43.603Z,17.57
2023-03-29T21:00:11.938Z,17.54
2023-03-29T21:02:41.771Z,17.60
2023-03-29T21:05:08.750Z,17.61
2023-03-29T21:07:35.382Z,17.55
2023-03-29T21:10:02.838Z,17.58
2023-03-29T21:12:29.334Z,17.64
2023-03-29T21:14:56.700Z,17.69
2023-03-29T21:17:23.260Z,17.67
2023-03-29T21:19:49.786Z,17.68
2023-03-29T21:22:17.574Z,17.72
2023-03-29T21:24:44.065Z,17.74
2023-03-29T21:27:10.643Z,17.67
2023-03-29T21:29:37.205Z,17.62
2023-03-29T21:32:04.582Z,17.55
2023-03-29T21:34:31.257Z,17.64
2023-03-29T21:36:57.770Z,17.61
2023-03-29T21:39:27.773Z,17.65
2023-03-29T21:41:54.384Z,17.53
2023-03-29T21:44:20.944Z,17.61
2023-03-29T21:46:47.445Z,17.61
2023-03-29T21:49:13.989Z,17.46
2023-03-29T21:51:40.577Z,17.52
2023-03-29T21:54:07.109Z,17.45
2023-03-29T21:56:33.597Z,17.42
2023-03-29T21:59:00.195Z,17.49
2023-03-29T22:01:27.113Z,17.39
2023-03-29T22:03:53.704Z,17.46
2023-03-29T22:06:20.749Z,17.30
2023-03-29T22:08:49.481Z,17.30
2023-03-29T22:11:17.124Z,17.31
2023-03-29T22:13:44.133Z,17.18
2023-03-29T22:16:16.799Z,17.23
2023-03-29T22:18:46.816Z,17.21
2023-03-29T22:21:15.557Z,17.30
2023-03-29T22:23:43.781Z,17.31
2023-03-29T22:26:12.186Z,17.37
2023-03-29T22:28:39.417Z,17.32
2023-03-29T22:31:08.485Z,17.37
2023-03-29T22:33:36.038Z,17.36
2023-03-29T22:36:03.621Z,17.33
2023-03-29T22:38:30.124Z,17.36
2023-03-29T22:40:56.638Z,17.37
2023-03-29T22:43:23.307Z,17.43
2023-03-29T22:45:49.815Z,17.40
2023-03-29T22:48:16.500Z,17.35
2023-03-29T22:50:46.404Z,17.42
2023-03-29T22:53:13.264Z,17.26
2023-03-29T22:55:40.000Z,17.30
2023-03-29T22:58:06.536Z,17.21
2023-03-29T23:00:33.145Z,17.20
2023-03-29T23:02:59.711Z,17.10
2023-03-29T23:05:26.286Z,17.08
2023-03-29T23:07:52.862Z,17.09
2023-03-29T23:10:19.384Z,17.02
2023-03-29T23:12:45.907Z,17.01
2023-03-29T23:15:12.668Z,17.02
2023-03-29T23:17:39.213Z,16.91
2023-03-29T23:20:06.388Z,16.98
2023-03-29T23:22:34.230Z,16.89
2023-03-29T23:25:00.704Z,16.94
2023-03-29T23:27:27.223Z,17.00
2023-03-29T23:29:55.465Z,16.92
2023-03-29T23:32:22.778Z,16.94
2023-03-29T23:34:49.378Z,16.93
2023-03-29T23:37:15.942Z,16.95
2023-03-29T23:39:42.452Z,16.95
2023-03-29T23:42:08.969Z,16.81
2023-03-29T23:44:35.529Z,16.85
2023-03-29T23:47:02.281Z,16.93
2023-03-29T23:49:30.077Z,16.98
2023-03-29T23:52:00.130Z,16.98
2023-03-29T23:54:27.500Z,16.92
2023-03-29T23:56:54.125Z,16.85
2023-03-29T23:59:22.714Z,16.91
